createdAt,value
2019-04-04T00:00:04.453Z,5
2019-04-04T00:01:02.237Z,5
2019-04-04T00:02:01.462Z,5
2019-04-04T00:03:01.666Z,5
2019-04-04T00:04:01.827Z,5
2019-04-04T00:05:02.107Z,2
2019-04-04T00:06:02.473Z,6
2019-04-04T00:07:01.606Z,6
2019-04-04T00:08:01.783Z,6
2019-04-04T00:09:02.653Z,6
2019-04-04T00:10:04.054Z,6
2019-04-04T00:11:01.556Z,2
2019-04-04T00:12:01.778Z,3
2019-04-04T00:13:02.001Z,3
2019-04-04T00:14:02.173Z,3
2019-04-04T00:15:01.415Z,3
2019-04-04T00:16:01.656Z,3
2019-04-04T00:17:01.913Z,5
2019-04-04T00:18:02.082Z,6
2019-04-04T00:19:02.323Z,6
2019-04-04T00:20:01.620Z,6
2019-04-04T00:21:02.803Z,6
2019-04-04T00:22:02.948Z,6
2019-04-04T00:23:02.217Z,2
2019-04-04T00:24:02.429Z,3
2019-04-04T00:25:01.627Z,3
2019-04-04T00:26:01.915Z,3
2019-04-04T00:27:02.142Z,3
2019-04-04T00:28:02.310Z,3
2019-04-04T00:29:01.642Z,5
2019-04-04T00:30:01.807Z,5
2019-04-04T00:31:02.022Z,5
2019-04-04T00:32:02.166Z,5
2019-04-04T00:33:02.346Z,5
2019-04-04T00:34:01.534Z,5
2019-04-04T00:35:01.853Z,2
2019-04-04T00:36:02.778Z,5
2019-04-04T00:37:04.466Z,5
2019-04-04T00:38:01.476Z,5
2019-04-04T00:39:01.709Z,5
2019-04-04T00:40:01.970Z,5
2019-04-04T00:41:02.167Z,4
2019-04-04T00:42:01.454Z,5
2019-04-04T00:43:01.721Z,5
2019-04-04T00:44:01.916Z,5
2019-04-04T00:45:02.123Z,5
2019-04-04T00:46:02.427Z,5
2019-04-04T00:47:02.220Z,2
2019-04-04T00:48:03.072Z,5
2019-04-04T00:49:04.588Z,5
2019-04-04T00:50:06.152Z,5
2019-04-04T00:51:01.537Z,5
2019-04-04T00:52:01.850Z,5
2019-04-04T00:53:02.001Z,4
2019-04-04T00:54:02.268Z,3
2019-04-04T00:55:01.418Z,3
2019-04-04T00:56:01.688Z,3
2019-04-04T00:57:01.959Z,3
2019-04-04T00:58:02.140Z,3
2019-04-04T00:59:02.415Z,5
2019-04-04T01:00:03.919Z,5
2019-04-04T01:01:01.753Z,5
2019-04-04T01:02:02.021Z,5
2019-04-04T01:03:02.154Z,5
2019-04-04T01:04:02.396Z,5
2019-04-04T01:05:02.240Z,2
2019-04-04T01:06:03.500Z,4
2019-04-04T01:07:03.030Z,4
2019-04-04T01:08:02.201Z,4
2019-04-04T01:09:01.484Z,4
2019-04-04T01:10:01.687Z,4
2019-04-04T01:11:01.834Z,4
2019-04-04T01:12:02.093Z,6
2019-04-04T01:13:02.275Z,6
2019-04-04T01:14:01.610Z,6
2019-04-04T01:15:01.861Z,6
2019-04-04T01:16:02.932Z,6
2019-04-04T01:17:04.007Z,5
2019-04-04T01:18:01.507Z,6
2019-04-04T01:19:02.186Z,6
2019-04-04T01:20:02.446Z,6
2019-04-04T01:21:01.702Z,6
2019-04-04T01:22:02.388Z,6
2019-04-04T01:23:01.571Z,2
2019-04-04T01:24:01.829Z,5
2019-04-04T01:25:02.021Z,5
2019-04-04T01:26:03.442Z,5
2019-04-04T01:27:05.917Z,5
2019-04-04T01:28:01.574Z,5
2019-04-04T01:29:01.855Z,5
2019-04-04T01:30:02.040Z,6
2019-04-04T01:31:02.221Z,6
2019-04-04T01:32:01.525Z,6
2019-04-04T01:33:03.650Z,6
2019-04-04T01:34:01.930Z,6
2019-04-04T01:35:02.152Z,2
2019-04-04T01:36:02.390Z,5
2019-04-04T01:37:01.601Z,5
2019-04-04T01:38:01.818Z,5
2019-04-04T01:39:02.150Z,5
2019-04-04T01:40:02.829Z,5
2019-04-04T01:41:04.094Z,2
2019-04-04T01:42:01.841Z,5
2019-04-04T01:43:02.040Z,5
2019-04-04T01:44:05.346Z,5
2019-04-04T01:45:01.495Z,5
2019-04-04T01:46:01.735Z,5
2019-04-04T01:47:01.958Z,4
2019-04-04T01:48:02.212Z,7
2019-04-04T01:49:02.430Z,7
2019-04-04T01:50:01.723Z,7
2019-04-04T01:51:01.922Z,7
2019-04-04T01:52:02.162Z,7
2019-04-04T01:53:02.413Z,4
2019-04-04T01:54:01.739Z,6
2019-04-04T01:55:03.407Z,6
2019-04-04T01:56:01.992Z,6
2019-04-04T01:57:02.209Z,6
2019-04-04T01:58:01.472Z,6
2019-04-04T01:59:01.672Z,4
2019-04-04T02:00:04.237Z,4
2019-04-04T02:01:02.038Z,4
2019-04-04T02:02:02.244Z,4
2019-04-04T02:03:01.502Z,4
2019-04-04T02:04:01.745Z,4
2019-04-04T02:05:02.010Z,4
2019-04-04T02:06:01.624Z,6
2019-04-04T02:07:01.789Z,6
2019-04-04T02:08:02.100Z,6
2019-04-04T02:09:02.821Z,6
2019-04-04T02:10:03.228Z,6
2019-04-04T02:11:01.698Z,5
2019-04-04T02:12:01.965Z,5
2019-04-04T02:13:02.187Z,5
2019-04-04T02:14:01.470Z,5
2019-04-04T02:15:01.707Z,5
2019-04-04T02:16:01.928Z,5
2019-04-04T02:17:02.089Z,4
2019-04-04T02:18:02.302Z,6
2019-04-04T02:19:01.552Z,6
2019-04-04T02:20:01.857Z,6
2019-04-04T02:21:02.115Z,6
2019-04-04T02:22:02.317Z,6
2019-04-04T02:23:01.930Z,5
2019-04-04T02:24:02.073Z,5
2019-04-04T02:25:03.174Z,5
2019-04-04T02:26:04.861Z,5
2019-04-04T02:27:01.505Z,5
2019-04-04T02:28:01.816Z,5
2019-04-04T02:29:02.054Z,4
2019-04-04T02:30:02.247Z,5
2019-04-04T02:31:01.445Z,5
2019-04-04T02:32:01.731Z,5
2019-04-04T02:33:01.980Z,5
2019-04-04T02:34:05.412Z,5
2019-04-04T02:35:02.348Z,5
2019-04-04T02:36:01.589Z,7
2019-04-04T02:37:01.839Z,7
2019-04-04T02:38:02.170Z,7
2019-04-04T02:39:02.312Z,7
2019-04-04T02:40:01.593Z,7
2019-04-04T02:41:01.782Z,5
2019-04-04T02:42:02.021Z,5
2019-04-04T02:43:02.241Z,5
2019-04-04T02:44:01.536Z,5
2019-04-04T02:45:05.290Z,5
2019-04-04T02:46:01.970Z,5
2019-04-04T02:47:02.181Z,4
2019-04-04T02:48:02.414Z,6
2019-04-04T02:49:01.600Z,6
2019-04-04T02:50:02.240Z,6
2019-04-04T02:51:02.198Z,6
2019-04-04T02:52:02.336Z,6
2019-04-04T02:53:01.675Z,1
2019-04-04T02:54:01.876Z,6
2019-04-04T02:55:02.220Z,6
2019-04-04T02:56:03.536Z,6
2019-04-04T02:57:01.579Z,6
2019-04-04T02:58:01.825Z,6
2019-04-04T02:59:02.117Z,5
2019-04-04T03:00:02.358Z,5
2019-04-04T03:01:01.566Z,5
2019-04-04T03:02:04.878Z,5
2019-04-04T03:03:02.092Z,5
2019-04-04T03:04:02.391Z,5
2019-04-04T03:05:01.573Z,4
2019-04-04T03:06:01.830Z,4
2019-04-04T03:07:01.974Z,4
2019-04-04T03:08:04.213Z,4
2019-04-04T03:09:01.428Z,4
2019-04-04T03:10:01.776Z,4
2019-04-04T03:11:01.963Z,5
2019-04-04T03:12:02.219Z,6
2019-04-04T03:13:01.387Z,6
2019-04-04T03:14:03.834Z,6
2019-04-04T03:15:01.861Z,6
2019-04-04T03:16:02.091Z,6
2019-04-04T03:17:02.294Z,2
2019-04-04T03:18:03.892Z,5
2019-04-04T03:19:01.809Z,5
2019-04-04T03:20:02.170Z,5
2019-04-04T03:21:02.295Z,5
2019-04-04T03:22:01.570Z,5
2019-04-04T03:23:01.824Z,5
2019-04-04T03:24:05.981Z,5
2019-04-04T03:25:02.276Z,5
2019-04-04T03:26:01.521Z,5
2019-04-04T03:27:01.742Z,5
2019-04-04T03:28:02.011Z,5
2019-04-04T03:29:05.475Z,5
2019-04-04T03:30:02.370Z,5
2019-04-04T03:31:02.778Z,5
2019-04-04T03:32:01.916Z,5
2019-04-04T03:33:02.022Z,5
2019-04-04T03:34:08.759Z,5
2019-04-04T03:35:01.651Z,4
2019-04-04T03:36:01.811Z,6
2019-04-04T03:37:05.929Z,6
2019-04-04T03:38:02.338Z,6
2019-04-04T03:39:01.564Z,6
2019-04-04T03:40:01.767Z,6
2019-04-04T03:41:01.988Z,5
2019-04-04T03:42:02.130Z,5
2019-04-04T03:43:02.452Z,5
2019-04-04T03:44:01.661Z,5
2019-04-04T03:45:01.918Z,5
2019-04-04T03:46:02.191Z,5
2019-04-04T03:47:02.400Z,4
2019-04-04T03:48:01.626Z,6
2019-04-04T03:49:01.944Z,6
2019-04-04T03:50:02.217Z,6
2019-04-04T03:51:04.882Z,6
2019-04-04T03:52:01.538Z,6
2019-04-04T03:53:01.751Z,5
2019-04-04T03:54:02.088Z,5
2019-04-04T03:55:02.326Z,5
2019-04-04T03:56:01.680Z,5
2019-04-04T03:57:01.774Z,5
2019-04-04T03:58:02.089Z,5
2019-04-04T03:59:02.278Z,5
2019-04-04T04:00:07.159Z,5
2019-04-04T04:01:01.662Z,5
2019-04-04T04:02:01.841Z,5
2019-04-04T04:03:02.136Z,5
2019-04-04T04:04:02.375Z,5
2019-04-04T04:05:02.109Z,4
2019-04-04T04:06:01.863Z,6
2019-04-04T04:07:02.039Z,6
2019-04-04T04:08:02.264Z,6
2019-04-04T04:09:01.477Z,6
2019-04-04T04:10:01.835Z,6
2019-04-04T04:11:04.818Z,5
2019-04-04T04:12:02.153Z,6
2019-04-04T04:13:02.420Z,6
2019-04-04T04:14:01.589Z,6
2019-04-04T04:15:01.990Z,6
2019-04-04T04:16:03.672Z,6
2019-04-04T04:17:02.411Z,5
2019-04-04T04:18:01.580Z,6
2019-04-04T04:19:01.794Z,6
2019-04-04T04:20:04.072Z,6
2019-04-04T04:21:02.259Z,6
2019-04-04T04:22:01.607Z,6
2019-04-04T04:23:01.774Z,5
2019-04-04T04:24:01.999Z,5
2019-04-04T04:25:03.284Z,5
2019-04-04T04:26:01.435Z,5
2019-04-04T04:27:01.736Z,5
2019-04-04T04:28:03.127Z,5
2019-04-04T04:29:02.110Z,5
2019-04-04T04:30:06.171Z,5
2019-04-04T04:31:01.651Z,5
2019-04-04T04:32:01.889Z,5
2019-04-04T04:33:02.028Z,5
2019-04-04T04:34:02.261Z,5
2019-04-04T04:35:01.546Z,2
2019-04-04T04:36:01.703Z,8
2019-04-04T04:37:02.022Z,8
2019-04-04T04:38:02.178Z,8
2019-04-04T04:39:02.304Z,8
2019-04-04T04:40:01.782Z,8
2019-04-04T04:41:01.788Z,4
2019-04-04T04:42:02.061Z,6
2019-04-04T04:43:02.246Z,6
2019-04-04T04:44:02.735Z,6
2019-04-04T04:45:01.691Z,6
2019-04-04T04:46:01.890Z,6
2019-04-04T04:47:02.124Z,2
2019-04-04T04:48:02.395Z,6
2019-04-04T04:49:03.332Z,6
2019-04-04T04:50:01.748Z,6
2019-04-04T04:51:02.038Z,6
2019-04-04T04:52:02.278Z,6
2019-04-04T04:53:01.537Z,2
2019-04-04T04:54:01.820Z,5
2019-04-04T04:55:02.144Z,5
2019-04-04T04:56:02.327Z,5
2019-04-04T04:57:03.935Z,5
2019-04-04T04:58:01.851Z,5
2019-04-04T04:59:02.023Z,5
2019-04-04T05:00:04.336Z,6
2019-04-04T05:01:02.113Z,6
2019-04-04T05:02:02.310Z,6
2019-04-04T05:03:01.586Z,6
2019-04-04T05:04:02.696Z,6
2019-04-04T05:05:02.051Z,8
2019-04-04T05:06:02.640Z,4
2019-04-04T05:07:01.490Z,4
2019-04-04T05:08:01.757Z,4
2019-04-04T05:09:01.843Z,4
2019-04-04T05:10:02.183Z,4
2019-04-04T05:11:02.208Z,6
2019-04-04T05:12:01.481Z,6
2019-04-04T05:13:01.682Z,6
2019-04-04T05:14:01.912Z,6
2019-04-04T05:15:02.319Z,6
2019-04-04T05:16:05.181Z,6
2019-04-04T05:17:01.580Z,4
2019-04-04T05:18:01.828Z,5
2019-04-04T05:19:02.117Z,5
2019-04-04T05:20:02.418Z,5
2019-04-04T05:21:01.989Z,5
2019-04-04T05:22:01.770Z,5
2019-04-04T05:23:01.929Z,5
2019-04-04T05:24:02.219Z,5
2019-04-04T05:25:08.413Z,5
2019-04-04T05:26:03.096Z,5
2019-04-04T05:27:01.769Z,5
2019-04-04T05:28:01.959Z,5
2019-04-04T05:29:02.204Z,5
2019-04-04T05:30:01.623Z,5
2019-04-04T05:31:01.633Z,5
2019-04-04T05:32:01.904Z,5
2019-04-04T05:33:02.087Z,5
2019-04-04T05:34:02.386Z,5
2019-04-04T05:35:02.091Z,6
2019-04-04T05:36:04.870Z,6
2019-04-04T05:37:02.028Z,6
2019-04-04T05:38:02.237Z,6
2019-04-04T05:39:01.420Z,6
2019-04-04T05:40:01.761Z,6
2019-04-04T05:41:01.979Z,5
2019-04-04T05:42:02.127Z,6
2019-04-04T05:43:04.209Z,6
2019-04-04T05:44:01.533Z,6
2019-04-04T05:45:01.765Z,6
2019-04-04T05:46:01.931Z,6
2019-04-04T05:47:02.184Z,6
2019-04-04T05:48:02.322Z,6
2019-04-04T05:49:07.628Z,6
2019-04-04T05:50:01.777Z,6
2019-04-04T05:51:01.950Z,6
2019-04-04T05:52:02.176Z,6
2019-04-04T05:53:04.307Z,5
2019-04-04T05:54:01.583Z,5
2019-04-04T05:55:01.748Z,5
2019-04-04T05:56:02.026Z,5
2019-04-04T05:57:03.431Z,5
2019-04-04T05:58:01.446Z,5
2019-04-04T05:59:01.640Z,8
2019-04-04T06:00:05.115Z,8
2019-04-04T06:01:02.576Z,8
2019-04-04T06:02:02.130Z,8
2019-04-04T06:03:02.381Z,8
2019-04-04T06:04:03.896Z,8
2019-04-04T06:05:01.835Z,5
2019-04-04T06:06:02.060Z,5
2019-04-04T06:07:04.328Z,5
2019-04-04T06:08:02.389Z,5
2019-04-04T06:09:01.560Z,5
2019-04-04T06:10:01.970Z,5
2019-04-04T06:11:02.166Z,8
2019-04-04T06:12:01.489Z,8
2019-04-04T06:13:01.769Z,8
2019-04-04T06:14:01.953Z,8
2019-04-04T06:15:02.271Z,8
2019-04-04T06:16:02.087Z,8
2019-04-04T06:17:01.680Z,8
2019-04-04T06:18:01.979Z,8
2019-04-04T06:19:02.145Z,8
2019-04-04T06:20:02.399Z,8
2019-04-04T06:21:01.643Z,8
2019-04-04T06:22:01.811Z,8
2019-04-04T06:23:02.025Z,6
2019-04-04T06:24:02.207Z,6
2019-04-04T06:25:02.397Z,6
2019-04-04T06:26:01.915Z,6
2019-04-04T06:27:02.155Z,6
2019-04-04T06:28:02.414Z,6
2019-04-04T06:29:01.791Z,6
2019-04-04T06:30:02.108Z,6
2019-04-04T06:31:02.324Z,6
2019-04-04T06:32:01.547Z,6
2019-04-04T06:33:03.902Z,6
2019-04-04T06:34:01.967Z,6
2019-04-04T06:35:02.193Z,5
2019-04-04T06:36:01.481Z,5
2019-04-04T06:37:01.682Z,5
2019-04-04T06:38:01.917Z,5
2019-04-04T06:39:02.167Z,5
2019-04-04T06:40:02.376Z,5
2019-04-04T06:41:01.595Z,6
2019-04-04T06:42:03.264Z,6
2019-04-04T06:43:03.849Z,6
2019-04-04T06:44:02.231Z,6
2019-04-04T06:45:01.471Z,6
2019-04-04T06:46:01.678Z,6
2019-04-04T06:47:02.266Z,5
2019-04-04T06:48:02.267Z,5
2019-04-04T06:49:03.859Z,5
2019-04-04T06:50:01.779Z,5
2019-04-04T06:51:01.837Z,5
2019-04-04T06:52:02.041Z,5
2019-04-04T06:53:02.289Z,5
2019-04-04T06:54:01.517Z,5
2019-04-04T06:55:01.806Z,5
2019-04-04T06:56:01.999Z,5
2019-04-04T06:57:04.110Z,5
2019-04-04T06:58:01.431Z,5
2019-04-04T06:59:01.754Z,5
2019-04-04T07:00:05.298Z,5
2019-04-04T07:01:02.185Z,5
2019-04-04T07:02:01.449Z,5
2019-04-04T07:03:01.682Z,5
2019-04-04T07:04:01.934Z,5
2019-04-04T07:05:02.184Z,5
2019-04-04T07:06:02.419Z,5
2019-04-04T07:07:01.618Z,5
2019-04-04T07:08:01.832Z,5
2019-04-04T07:09:02.042Z,5
2019-04-04T07:10:02.275Z,5
2019-04-04T07:11:03.311Z,5
2019-04-04T07:12:01.711Z,5
2019-04-04T07:13:20.195Z,5
2019-04-04T07:14:02.203Z,5
2019-04-04T07:15:02.395Z,5
2019-04-04T07:16:07.031Z,5
2019-04-04T07:17:02.120Z,5
2019-04-04T07:18:02.218Z,5
2019-04-04T07:19:02.384Z,5
2019-04-04T07:20:01.983Z,5
2019-04-04T07:21:03.610Z,5
2019-04-04T07:22:02.128Z,5
2019-04-04T07:23:02.363Z,5
2019-04-04T07:24:01.531Z,5
2019-04-04T07:25:05.623Z,5
2019-04-04T07:26:01.981Z,5
2019-04-04T07:27:02.203Z,5
2019-04-04T07:28:01.606Z,5
2019-04-04T07:29:01.781Z,8
2019-04-04T07:30:02.359Z,8
2019-04-04T07:31:02.525Z,8
2019-04-04T07:32:01.584Z,8
2019-04-04T07:33:01.703Z,8
2019-04-04T07:34:01.967Z,8
2019-04-04T07:35:02.159Z,5
2019-04-04T07:36:02.299Z,5
2019-04-04T07:37:01.549Z,5
2019-04-04T07:38:01.647Z,5
2019-04-04T07:39:01.826Z,5
2019-04-04T07:40:03.438Z,5
2019-04-04T07:41:02.147Z,5
2019-04-04T07:42:01.456Z,5
2019-04-04T07:43:01.733Z,5
2019-04-04T07:44:01.932Z,5
2019-04-04T07:45:02.257Z,5
2019-04-04T07:46:10.428Z,5
2019-04-04T07:47:01.590Z,5
2019-04-04T07:48:01.843Z,5
2019-04-04T07:49:02.094Z,5
2019-04-04T07:50:02.386Z,5
2019-04-04T07:51:01.672Z,5
2019-04-04T07:52:02.341Z,5
2019-04-04T07:53:04.270Z,5
2019-04-04T07:54:02.256Z,5
2019-04-04T07:55:01.499Z,5
2019-04-04T07:56:01.749Z,5
2019-04-04T07:57:01.904Z,5
2019-04-04T07:58:02.146Z,5
2019-04-04T07:59:02.331Z,8
2019-04-04T08:00:03.908Z,8
2019-04-04T08:01:01.867Z,8
2019-04-04T08:02:02.010Z,8
2019-04-04T08:03:02.119Z,8
2019-04-04T08:04:02.295Z,8
2019-04-04T08:05:01.461Z,6
2019-04-04T08:06:01.814Z,6
2019-04-04T08:07:01.835Z,6
2019-04-04T08:08:02.023Z,6
2019-04-04T08:09:02.236Z,6
2019-04-04T08:10:01.923Z,6
2019-04-04T08:11:02.099Z,5
2019-04-04T08:12:02.308Z,5
2019-04-04T08:13:01.507Z,5
2019-04-04T08:14:01.783Z,5
2019-04-04T08:15:02.056Z,5
2019-04-04T08:16:02.252Z,5
2019-04-04T08:17:01.432Z,5
2019-04-04T08:18:01.705Z,5
2019-04-04T08:19:01.950Z,5
2019-04-04T08:20:02.116Z,5
2019-04-04T08:21:02.374Z,5
2019-04-04T08:22:01.641Z,5
2019-04-04T08:23:01.980Z,4
2019-04-04T08:24:02.064Z,4
2019-04-04T08:25:02.243Z,4
2019-04-04T08:26:01.544Z,4
2019-04-04T08:27:01.775Z,4
2019-04-04T08:28:01.998Z,4
2019-04-04T08:29:02.157Z,5
2019-04-04T08:30:02.338Z,5
2019-04-04T08:31:01.793Z,5
2019-04-04T08:32:01.892Z,5
2019-04-04T08:33:02.098Z,5
2019-04-04T08:34:02.290Z,5
2019-04-04T08:35:01.412Z,6
2019-04-04T08:36:06.247Z,6
2019-04-04T08:37:01.893Z,6
2019-04-04T08:38:02.079Z,6
2019-04-04T08:39:02.271Z,6
2019-04-04T08:40:01.479Z,6
2019-04-04T08:41:01.770Z,5
2019-04-04T08:42:01.869Z,5
2019-04-04T08:43:02.118Z,5
2019-04-04T08:44:02.316Z,5
2019-04-04T08:45:01.571Z,5
2019-04-04T08:46:01.876Z,5
2019-04-04T08:47:01.974Z,8
2019-04-04T08:48:02.306Z,8
2019-04-04T08:49:01.504Z,8
2019-04-04T08:50:01.711Z,8
2019-04-04T08:51:01.972Z,8
2019-04-04T08:52:02.100Z,8
2019-04-04T08:53:02.409Z,6
2019-04-04T08:54:01.632Z,6
2019-04-04T08:55:01.916Z,6
2019-04-04T08:56:02.058Z,6
2019-04-04T08:57:02.262Z,6
2019-04-04T08:58:01.484Z,6
2019-04-04T08:59:01.732Z,8
2019-04-04T09:00:04.470Z,8
2019-04-04T09:01:02.260Z,8
2019-04-04T09:02:01.446Z,8
2019-04-04T09:03:01.743Z,8
2019-04-04T09:04:01.991Z,8
2019-04-04T09:05:11.814Z,5
2019-04-04T09:06:01.520Z,5
2019-04-04T09:07:01.600Z,5
2019-04-04T09:08:01.830Z,5
2019-04-04T09:09:02.105Z,5
2019-04-04T09:10:02.240Z,5
2019-04-04T09:11:02.345Z,6
2019-04-04T09:12:01.608Z,6
2019-04-04T09:13:01.838Z,6
2019-04-04T09:14:02.047Z,6
2019-04-04T09:15:02.134Z,6
2019-04-04T09:16:02.306Z,6
2019-04-04T09:17:01.632Z,6
2019-04-04T09:18:01.832Z,6
2019-04-04T09:19:02.140Z,6
2019-04-04T09:20:02.328Z,6
2019-04-04T09:21:01.542Z,6
2019-04-04T09:22:01.743Z,6
2019-04-04T09:23:01.951Z,5
2019-04-04T09:24:02.170Z,5
2019-04-04T09:25:01.724Z,5
2019-04-04T09:26:05.712Z,5
2019-04-04T09:27:02.059Z,5
2019-04-04T09:28:02.252Z,5
2019-04-04T09:29:01.540Z,6
2019-04-04T09:30:01.857Z,6
2019-04-04T09:31:02.020Z,6
2019-04-04T09:32:02.234Z,6
2019-04-04T09:33:01.463Z,6
2019-04-04T09:34:01.642Z,6
2019-04-04T09:35:01.914Z,6
2019-04-04T09:36:02.002Z,6
2019-04-04T09:37:02.242Z,6
2019-04-04T09:38:01.479Z,6
2019-04-04T09:39:01.688Z,6
2019-04-04T09:40:01.965Z,6
2019-04-04T09:41:02.213Z,5
2019-04-04T09:42:02.436Z,5
2019-04-04T09:43:01.536Z,5
2019-04-04T09:44:01.692Z,5
2019-04-04T09:45:02.000Z,5
2019-04-04T09:46:02.183Z,5
2019-04-04T09:47:05.627Z,6
2019-04-04T09:48:01.598Z,6
2019-04-04T09:49:01.693Z,6
2019-04-04T09:50:01.970Z,6
2019-04-04T09:51:02.196Z,6
2019-04-04T09:52:02.387Z,6
2019-04-04T09:53:01.669Z,6
2019-04-04T09:54:01.806Z,6
2019-04-04T09:55:02.127Z,6
2019-04-04T09:56:02.244Z,6
2019-04-04T09:57:01.479Z,6
2019-04-04T09:58:01.778Z,6
2019-04-04T09:59:01.925Z,8
2019-04-04T10:00:04.531Z,8
2019-04-04T10:01:02.374Z,8
2019-04-04T10:02:01.612Z,8
2019-04-04T10:03:01.819Z,8
2019-04-04T10:04:02.027Z,8
2019-04-04T10:05:02.310Z,5
2019-04-04T10:06:01.423Z,5
2019-04-04T10:07:01.562Z,5
2019-04-04T10:08:01.764Z,5
2019-04-04T10:09:14.687Z,5
2019-04-04T10:10:02.154Z,5
2019-04-04T10:11:01.384Z,6
2019-04-04T10:12:01.645Z,6
2019-04-04T10:13:01.938Z,6
2019-04-04T10:14:03.976Z,6
2019-04-04T10:15:02.299Z,6
2019-04-04T10:16:01.600Z,6
2019-04-04T10:17:01.749Z,5
2019-04-04T10:18:02.060Z,5
2019-04-04T10:19:02.187Z,5
2019-04-04T10:20:02.448Z,5
2019-04-04T10:21:11.875Z,5
2019-04-04T10:22:01.749Z,5
2019-04-04T10:23:02.028Z,6
2019-04-04T10:24:02.295Z,6
2019-04-04T10:25:01.510Z,6
2019-04-04T10:26:01.705Z,6
2019-04-04T10:27:01.981Z,6
2019-04-04T10:28:02.232Z,6
2019-04-04T10:29:02.456Z,6
2019-04-04T10:30:01.602Z,6
2019-04-04T10:31:01.725Z,6
2019-04-04T10:32:01.889Z,6
2019-04-04T10:33:02.064Z,6
2019-04-04T10:34:02.313Z,6
2019-04-04T10:35:02.085Z,6
2019-04-04T10:36:02.148Z,6
2019-04-04T10:37:01.388Z,6
2019-04-04T10:38:01.614Z,6
2019-04-04T10:39:01.844Z,6
2019-04-04T10:40:02.042Z,6
2019-04-04T10:41:02.176Z,7
2019-04-04T10:42:01.447Z,7
2019-04-04T10:43:01.730Z,7
2019-04-04T10:44:02.004Z,7
2019-04-04T10:45:02.241Z,7
2019-04-04T10:46:02.368Z,7
2019-04-04T10:47:01.555Z,7
2019-04-04T10:48:01.790Z,7
2019-04-04T10:49:01.900Z,7
2019-04-04T10:50:02.103Z,7
2019-04-04T10:51:02.237Z,7
2019-04-04T10:52:02.403Z,7
2019-04-04T10:53:01.710Z,5
2019-04-04T10:54:01.839Z,5
2019-04-04T10:55:02.235Z,5
2019-04-04T10:56:01.432Z,5
2019-04-04T10:57:01.599Z,5
2019-04-04T10:58:01.874Z,5
2019-04-04T10:59:01.990Z,6
2019-04-04T11:00:05.767Z,6
2019-04-04T11:01:01.656Z,6
2019-04-04T11:02:01.885Z,6
2019-04-04T11:03:02.176Z,6
2019-04-04T11:04:02.304Z,6
2019-04-04T11:05:01.446Z,6
2019-04-04T11:06:01.712Z,6
2019-04-04T11:07:01.990Z,6
2019-04-04T11:08:02.299Z,6
2019-04-04T11:09:02.369Z,6
2019-04-04T11:10:01.516Z,6
2019-04-04T11:11:01.631Z,9
2019-04-04T11:12:01.835Z,9
2019-04-04T11:13:02.976Z,9
2019-04-04T11:14:02.241Z,9
2019-04-04T11:15:01.526Z,9
2019-04-04T11:16:01.727Z,9
2019-04-04T11:17:01.903Z,8
2019-04-04T11:18:02.156Z,8
2019-04-04T11:19:02.220Z,8
2019-04-04T11:20:02.449Z,8
2019-04-04T11:21:01.640Z,8
2019-04-04T11:22:01.828Z,8
2019-04-04T11:23:02.429Z,9
2019-04-04T11:24:02.263Z,9
2019-04-04T11:25:02.448Z,9
2019-04-04T11:26:01.713Z,9
2019-04-04T11:27:01.825Z,9
2019-04-04T11:28:02.042Z,9
2019-04-04T11:29:02.245Z,6
2019-04-04T11:30:01.526Z,6
2019-04-04T11:31:01.611Z,6
2019-04-04T11:32:01.907Z,6
2019-04-04T11:33:01.989Z,6
2019-04-04T11:34:02.137Z,6
2019-04-04T11:35:02.341Z,9
2019-04-04T11:36:01.499Z,9
2019-04-04T11:37:01.697Z,9
2019-04-04T11:38:01.838Z,9
2019-04-04T11:39:02.092Z,9
2019-04-04T11:40:02.328Z,7
2019-04-04T11:41:01.482Z,7
2019-04-04T11:42:01.740Z,7
2019-04-04T11:43:01.992Z,7
2019-04-04T11:44:02.182Z,7
2019-04-04T11:45:02.377Z,7
2019-04-04T11:46:01.481Z,7
2019-04-04T11:47:01.676Z,7
2019-04-04T11:48:02.031Z,6
2019-04-04T11:49:02.278Z,8
2019-04-04T11:50:01.517Z,9
2019-04-04T11:51:01.646Z,9
2019-04-04T11:52:01.846Z,9
2019-04-04T11:53:02.022Z,9
2019-04-04T11:54:02.226Z,9
2019-04-04T11:55:01.568Z,3
2019-04-04T11:56:01.714Z,11
2019-04-04T11:57:02.056Z,11
2019-04-04T11:58:02.314Z,11
2019-04-04T11:59:02.367Z,11
2019-04-04T12:00:03.690Z,11
2019-04-04T12:01:01.468Z,8
2019-04-04T12:02:01.688Z,8
2019-04-04T12:03:01.964Z,8
2019-04-04T12:04:02.097Z,8
2019-04-04T12:05:02.438Z,8
2019-04-04T12:06:01.623Z,8
2019-04-04T12:07:01.733Z,10
2019-04-04T12:08:01.944Z,9
2019-04-04T12:09:02.180Z,9
2019-04-04T12:10:07.727Z,9
2019-04-04T12:11:01.560Z,9
2019-04-04T12:12:01.717Z,9
2019-04-04T12:13:01.963Z,6
2019-04-04T12:14:02.084Z,9
2019-04-04T12:15:02.314Z,9
2019-04-04T12:16:01.505Z,9
2019-04-04T12:17:01.771Z,9
2019-04-04T12:18:01.902Z,9
2019-04-04T12:19:02.178Z,10
2019-04-04T12:20:02.380Z,9
2019-04-04T12:21:01.594Z,9
2019-04-04T12:22:01.774Z,9
2019-04-04T12:23:01.956Z,9
2019-04-04T12:24:02.028Z,9
2019-04-04T12:25:02.268Z,6
2019-04-04T12:26:01.507Z,7
2019-04-04T12:27:01.649Z,7
2019-04-04T12:28:01.810Z,7
2019-04-04T12:29:01.998Z,7
2019-04-04T12:30:02.360Z,7
2019-04-04T12:31:01.649Z,6
2019-04-04T12:32:01.766Z,10
2019-04-04T12:33:02.157Z,10
2019-04-04T12:34:02.390Z,10
2019-04-04T12:35:02.438Z,10
2019-04-04T12:36:01.652Z,10
2019-04-04T12:37:01.789Z,7
2019-04-04T12:38:02.060Z,7
2019-04-04T12:39:02.236Z,7
2019-04-04T12:40:01.437Z,7
2019-04-04T12:41:01.661Z,7
2019-04-04T12:42:01.805Z,7
2019-04-04T12:43:02.142Z,5
2019-04-04T12:44:02.254Z,9
2019-04-04T12:45:01.443Z,9
2019-04-04T12:46:01.578Z,9
2019-04-04T12:47:01.727Z,9
2019-04-04T12:48:02.134Z,9
2019-04-04T12:49:01.445Z,5
2019-04-04T12:50:01.575Z,7
2019-04-04T12:51:01.821Z,7
2019-04-04T12:52:02.025Z,7
2019-04-04T12:53:02.017Z,7
2019-04-04T12:54:02.213Z,7
2019-04-04T12:55:02.409Z,6
2019-04-04T12:56:01.485Z,9
2019-04-04T12:57:01.657Z,9
2019-04-04T12:58:01.706Z,9
2019-04-04T12:59:01.970Z,9
2019-04-04T13:00:03.675Z,9
2019-04-04T13:01:01.583Z,6
2019-04-04T13:02:02.435Z,7
2019-04-04T13:03:01.664Z,7
2019-04-04T13:04:01.798Z,7
2019-04-04T13:05:02.135Z,7
2019-04-04T13:06:02.320Z,7
2019-04-04T13:07:01.458Z,6
2019-04-04T13:08:01.681Z,8
2019-04-04T13:09:01.850Z,8
2019-04-04T13:10:11.485Z,8
2019-04-04T13:11:02.376Z,8
2019-04-04T13:12:01.593Z,8
2019-04-04T13:13:01.881Z,5
2019-04-04T13:14:02.023Z,7
2019-04-04T13:15:02.223Z,7
2019-04-04T13:16:02.484Z,7
2019-04-04T13:17:01.615Z,7
2019-04-04T13:18:01.872Z,7
2019-04-04T13:19:02.021Z,6
2019-04-04T13:20:02.274Z,7
2019-04-04T13:21:01.449Z,7
2019-04-04T13:22:01.535Z,7
2019-04-04T13:23:01.868Z,7
2019-04-04T13:24:02.097Z,7
2019-04-04T13:25:02.369Z,5
2019-04-04T13:26:02.368Z,6
2019-04-04T13:27:01.414Z,6
2019-04-04T13:28:01.531Z,6
2019-04-04T13:29:01.773Z,6
2019-04-04T13:30:02.115Z,6
2019-04-04T13:31:02.384Z,5
2019-04-04T13:32:01.464Z,5
2019-04-04T13:33:01.680Z,5
2019-04-04T13:34:01.804Z,5
2019-04-04T13:35:04.869Z,5
2019-04-04T13:36:02.179Z,5
2019-04-04T13:37:02.472Z,5
2019-04-04T13:38:01.582Z,6
2019-04-04T13:39:01.803Z,6
2019-04-04T13:40:02.060Z,6
2019-04-04T13:41:02.278Z,6
2019-04-04T13:42:01.455Z,6
2019-04-04T13:43:01.649Z,6
2019-04-04T13:44:01.819Z,6
2019-04-04T13:45:01.948Z,6
2019-04-04T13:46:02.055Z,6
2019-04-04T13:47:03.294Z,6
2019-04-04T13:48:02.322Z,6
2019-04-04T13:49:01.535Z,5
2019-04-04T13:50:01.769Z,7
2019-04-04T13:51:01.938Z,7
2019-04-04T13:52:02.069Z,7
2019-04-04T13:53:02.339Z,7
2019-04-04T13:54:01.472Z,7
2019-04-04T13:55:01.690Z,6
2019-04-04T13:56:01.740Z,5
2019-04-04T13:57:02.021Z,5
2019-04-04T13:58:02.226Z,5
2019-04-04T13:59:05.521Z,5
2019-04-04T14:00:04.363Z,5
2019-04-04T14:01:02.150Z,5
2019-04-04T14:02:02.308Z,6
2019-04-04T14:03:01.551Z,6
2019-04-04T14:04:01.833Z,6
2019-04-04T14:05:09.678Z,6
2019-04-04T14:06:02.241Z,6
2019-04-04T14:07:02.603Z,6
2019-04-04T14:08:01.555Z,6
2019-04-04T14:09:01.703Z,6
2019-04-04T14:10:01.950Z,6
2019-04-04T14:11:02.062Z,6
2019-04-04T14:12:02.301Z,6
2019-04-04T14:13:01.471Z,3
2019-04-04T14:14:01.676Z,4
2019-04-04T14:15:01.857Z,4
2019-04-04T14:16:02.363Z,4
2019-04-04T14:17:01.542Z,4
2019-04-04T14:18:01.667Z,4
2019-04-04T14:19:01.838Z,5
2019-04-04T14:20:02.000Z,6
2019-04-04T14:21:04.194Z,6
2019-04-04T14:22:02.219Z,6
2019-04-04T14:23:02.314Z,6
2019-04-04T14:24:12.440Z,6
2019-04-04T14:25:01.726Z,3
2019-04-04T14:26:01.846Z,4
2019-04-04T14:27:01.879Z,4
2019-04-04T14:28:02.086Z,4
2019-04-04T14:29:04.593Z,4
2019-04-04T14:30:01.449Z,4
2019-04-04T14:31:01.684Z,3
2019-04-04T14:32:01.856Z,6
2019-04-04T14:33:02.140Z,6
2019-04-04T14:34:02.288Z,6
2019-04-04T14:35:01.620Z,6
2019-04-04T14:36:01.580Z,6
2019-04-04T14:37:01.618Z,3
2019-04-04T14:38:01.855Z,4
2019-04-04T14:39:02.299Z,4
2019-04-04T14:40:02.304Z,4
2019-04-04T14:41:11.025Z,4
2019-04-04T14:42:01.558Z,4
2019-04-04T14:43:01.679Z,3
2019-04-04T14:44:01.924Z,6
2019-04-04T14:45:02.828Z,6
2019-04-04T14:46:02.299Z,6